Time;durP1;ratioP1;P1;durP2;ratioP2;P2;SDS_P1;SDS_P2;PMS_P1;PMS_P2;Temp;Humidity;BMP_temperature;BMP_pressure;BME280_temperature;BME280_humidity;BME280_pressure;Samples;Min_cycle;Max_cycle;Signal;HPM_P1;HPM_P2
2021/09/05 00:00:27;;;;;;;23.52;16.63;;;;;;;11.52;100.00;95985.06;1026804;28;20461;-75
2021/09/05 00:00:57;;;;;;;18.15;15.07;;;;;;;11.39;100.00;95965.34;1022784;28;20028;-79
2021/09/05 00:01:28;;;;;;;20.95;16.13;;;;;;;11.42;100.00;95967.44;1026350;28;20121;-78
2021/09/05 00:01:58;;;;;;;20.70;14.90;;;;;;;11.43;100.00;95986.63;1018778;29;20019;-78
2021/09/05 00:02:29;;;;;;;23.80;17.42;;;;;;;11.53;100.00;95984.00;1030466;28;20037;-78
2021/09/05 00:02:59;;;;;;;18.88;15.48;;;;;;;11.34;100.00;95962.72;1032136;28;20021;-80
2021/09/05 00:03:30;;;;;;;21.02;16.73;;;;;;;11.51;100.00;95986.13;1030677;28;20057;-80
2021/09/05 00:04:03;;;;;;;22.15;15.95;;;;;;;11.37;100.00;95974.53;1026551;28;20023;-79
2021/09/05 00:04:34;;;;;;;20.13;15.73;;;;;;;11.46;100.00;95992.13;1019008;29;20078;-78
2021/09/05 00:05:05;;;;;;;21.02;16.50;;;;;;;11.42;100.00;95988.47;1018395;29;20398;-80
2021/09/05 00:05:35;;;;;;;18.48;14.88;;;;;;;11.42;100.00;95987.69;1018802;29;20888;-79
2021/09/05 00:06:06;;;;;;;20.50;16.15;;;;;;;11.32;100.00;95972.69;1018643;29;20617;-80
2021/09/05 00:06:36;;;;;;;21.50;16.60;;;;;;;11.27;100.00;95968.22;1022691;28;20019;-78
2021/09/05 00:07:07;;;;;;;21.80;15.95;;;;;;;11.37;100.00;95977.97;1018228;29;20024;-78
2021/09/05 00:07:37;;;;;;;20.67;16.65;;;;;;;11.36;100.00;95984.25;1018544;28;20550;-78
2021/09/05 00:08:08;;;;;;;20.20;15.35;;;;;;;11.36;100.00;95981.63;1014427;29;20174;-78
2021/09/05 00:08:38;;;;;;;23.90;16.13;;;;;;;11.27;100.00;95967.44;1018507;29;20035;-78
2021/09/05 00:09:10;;;;;;;20.45;16.15;;;;;;;11.38;100.00;95990.03;1030537;28;20146;-78
2021/09/05 00:09:41;;;;;;;19.75;16.00;;;;;;;11.35;100.00;95985.31;1027147;28;20116;-78
2021/09/05 00:10:11;;;;;;;19.90;16.73;;;;;;;11.33;100.00;95976.88;1026251;28;20262;-80
2021/09/05 00:10:42;;;;;;;19.52;15.30;;;;;;;11.23;100.00;95966.38;1018541;29;20118;-78
2021/09/05 00:11:12;;;;;;;22.75;16.15;;;;;;;11.33;100.00;95982.13;1026726;28;20022;-81
2021/09/05 00:11:43;;;;;;;21.23;15.50;;;;;;;11.26;100.00;95971.09;1022191;29;20015;-77
2021/09/05 00:12:13;;;;;;;22.38;17.25;;;;;;;11.26;100.00;95979.75;1026546;28;20018;-77
2021/09/05 00:12:44;;;;;;;19.55;15.70;;;;;;;11.31;100.00;95990.28;1030524;28;20444;-80
2021/09/05 00:13:14;;;;;;;21.45;17.50;;;;;;;11.25;100.00;95977.41;1022300;28;20032;-76
2021/09/05 00:13:44;;;;;;;20.08;15.90;;;;;;;11.28;100.00;95984.78;1018539;29;20153;-76
2021/09/05 00:14:15;;;;;;;19.60;16.33;;;;;;;11.17;100.00;95968.22;1022752;29;20019;-78
2021/09/05 00:14:46;;;;;;;20.88;15.30;;;;;;;11.18;100.00;95969.00;1027723;28;20027;-79
2021/09/05 00:15:16;;;;;;;20.10;15.50;;;;;;;11.23;100.00;95980.31;1026586;28;20458;-79
2021/09/05 00:15:47;;;;;;;23.40;17.45;;;;;;;11.26;100.00;95986.84;1022764;29;20103;-78
2021/09/05 00:16:17;;;;;;;20.20;15.13;;;;;;;11.24;100.00;95986.34;1026516;28;20062;-79
2021/09/05 00:16:48;;;;;;;18.85;15.48;;;;;;;10.82;100.00;95916.41;1022188;28;20110;-78
2021/09/05 00:17:19;;;;;;;18.50;15.32;;;;;;;11.25;100.00;95991.34;1022554;29;20023;-79
2021/09/05 00:17:49;;;;;;;21.40;15.07;;;;;;;11.21;100.00;95979.78;1026709;28;20528;-78
2021/09/05 00:18:20;;;;;;;20.70;16.38;;;;;;;11.16;100.00;95968.47;1014375;29;20268;-78
2021/09/05 00:18:50;;;;;;;19.08;15.57;;;;;;;10.97;100.00;95942.69;1026533;28;20023;-78
2021/09/05 00:19:21;;;;;;;20.35;14.75;;;;;;;11.27;100.00;95986.63;1022485;29;20019;-78
2021/09/05 00:19:51;;;;;;;18.75;15.30;;;;;;;11.18;100.00;95982.91;1022413;29;20027;-78
2021/09/05 00:20:22;;;;;;;20.45;15.77;;;;;;;11.21;100.00;95974.53;1022421;29;20581;-79
2021/09/05 00:20:53;;;;;;;21.35;15.05;;;;;;;10.69;100.00;95899.31;1022537;29;20037;-79
2021/09/05 00:21:24;;;;;;;20.08;14.68;;;;;;;11.22;100.00;95986.59;1022430;29;20757;-75
2021/09/05 00:21:55;;;;;;;18.65;16.17;;;;;;;11.25;100.00;95993.97;1023508;28;20019;-79
2021/09/05 00:22:25;;;;;;;19.15;15.43;;;;;;;11.11;100.00;95973.72;1026549;28;20443;-78
2021/09/05 00:22:56;;;;;;;18.88;14.63;;;;;;;11.19;100.00;95981.06;1022722;29;20023;-80
2021/09/05 00:23:27;;;;;;;21.92;14.38;;;;;;;10.94;100.00;95942.44;1016829;29;20957;-80
2021/09/05 00:23:57;;;;;;;21.02;15.43;;;;;;;11.23;100.00;95990.00;1018544;29;20059;-78
2021/09/05 00:24:28;;;;;;;23.20;14.68;;;;;;;11.13;100.00;95984.72;1018827;29;20310;-78
2021/09/05 00:24:58;;;;;;;18.02;15.20;;;;;;;11.18;100.00;95990.00;1022500;28;20029;-79
2021/09/05 00:25:32;;;;;;;18.77;14.93;;;;;;;11.08;100.00;95973.19;1022493;28;20032;-78
2021/09/05 00:26:02;;;;;;;19.75;14.77;;;;;;;11.02;100.00;95968.16;1022559;28;20500;-80
2021/09/05 00:26:33;;;;;;;20.02;16.17;;;;;;;11.11;100.00;95982.38;1022729;28;20271;-80
2021/09/05 00:27:04;;;;;;;21.38;16.30;;;;;;;11.02;100.00;95974.19;1026802;28;20106;-78
2021/09/05 00:27:34;;;;;;;21.10;17.02;;;;;;;11.07;100.00;95990.00;1017407;29;20272;-78
2021/09/05 00:28:05;;;;;;;22.20;17.77;;;;;;;11.07;100.00;95992.63;1030070;28;20448;-77
2021/09/05 00:28:36;;;;;;;19.38;16.27;;;;;;;10.98;100.00;95975.00;1021231;29;20023;-77
2021/09/05 00:29:06;;;;;;;20.52;15.80;;;;;;;10.99;100.00;95981.81;1025571;29;20046;-77
2021/09/05 00:29:37;;;;;;;18.98;15.32;;;;;;;11.05;100.00;95992.06;1029263;28;20093;-79
2021/09/05 00:30:08;;;;;;;16.50;14.18;;;;;;;10.94;100.00;95969.47;1029387;28;20018;-79
2021/09/05 00:30:38;;;;;;;19.38;14.40;;;;;;;10.93;100.00;95962.66;1025158;29;20271;-81
2021/09/05 00:31:09;;;;;;;19.02;14.27;;;;;;;10.86;100.00;95951.59;1021270;29;20040;-77
2021/09/05 00:31:40;;;;;;;20.50;14.85;;;;;;;11.07;100.00;95979.47;1016496;29;20073;-79
2021/09/05 00:32:10;;;;;;;17.70;14.98;;;;;;;11.12;100.00;95991.81;1026136;28;20564;-79
2021/09/05 00:32:41;;;;;;;23.88;14.65;;;;;;;10.81;100.00;95956.84;1018828;29;20556;-78
2021/09/05 00:33:11;;;;;;;22.27;14.90;;;;;;;11.06;100.00;95992.84;1026694;28;20145;-78
2021/09/05 00:33:42;;;;;;;18.83;15.00;;;;;;;11.03;100.00;95988.94;1020906;29;20012;-79
2021/09/05 00:34:12;;;;;;;20.30;14.57;;;;;;;10.96;100.00;95977.06;1022669;29;20027;-79
2021/09/05 00:34:42;;;;;;;19.92;15.30;;;;;;;11.02;100.00;95989.97;1030843;28;20677;-77
2021/09/05 00:35:14;;;;;;;17.92;14.30;;;;;;;10.98;100.00;95991.53;1022417;28;20074;-77
2021/09/05 00:35:44;;;;;;;25.95;15.68;;;;;;;11.00;100.00;96002.56;1026430;28;20018;-79
2021/09/05 00:36:15;;;;;;;22.58;14.70;;;;;;;10.99;100.00;95993.09;1026595;28;20266;-78
2021/09/05 00:36:45;;;;;;;20.13;14.60;;;;;;;10.95;100.00;95992.03;1026365;28;20047;-77
2021/09/05 00:37:16;;;;;;;20.33;15.73;;;;;;;10.80;100.00;95974.41;1026646;28;20019;-78
2021/09/05 00:37:47;;;;;;;19.63;14.63;;;;;;;10.89;100.00;95979.94;1026523;28;20031;-79
2021/09/05 00:38:17;;;;;;;19.55;14.77;;;;;;;10.61;100.00;95945.22;1018840;29;20067;-78
2021/09/05 00:38:48;;;;;;;19.63;15.18;;;;;;;10.89;100.00;95989.66;1018663;29;20016;-81
2021/09/05 00:42:49;;;;;;;17.95;13.80;;;;;;;10.78;100.00;95996.72;1059699;22;20276;-68
2021/09/05 00:43:20;;;;;;;19.25;14.07;;;;;;;10.75;100.00;95994.59;1042747;28;20765;-68
2021/09/05 00:44:10;;;;;;;19.35;15.85;;;;;;;10.73;100.00;95991.44;1041437;28;20425;-68
2021/09/05 00:44:41;;;;;;;19.33;14.30;;;;;;;10.72;100.00;95992.50;1034567;28;20037;-68
2021/09/05 00:45:11;;;;;;;19.50;14.73;;;;;;;10.70;100.00;95994.59;1034818;28;20029;-66
2021/09/05 00:45:42;;;;;;;19.85;15.40;;;;;;;10.69;100.00;95993.78;1036818;28;20025;-66
2021/09/05 00:46:12;;;;;;;20.27;15.13;;;;;;;10.66;100.00;95989.03;1034993;28;20472;-66
2021/09/05 00:46:43;;;;;;;17.77;14.48;;;;;;;10.62;100.00;95996.66;1034721;28;20517;-66
2021/09/05 00:47:13;;;;;;;17.08;14.23;;;;;;;10.63;100.00;95994.84;1022494;28;20015;-65
2021/09/05 00:47:44;;;;;;;18.13;15.20;;;;;;;10.62;100.00;95999.25;1022804;29;20687;-63
2021/09/05 00:48:14;;;;;;;20.35;14.77;;;;;;;10.61;100.00;95997.69;1022645;29;20456;-66
2021/09/05 00:48:44;;;;;;;15.75;12.93;;;;;;;10.59;100.00;95988.50;1030597;28;20019;-65
2021/09/05 00:49:15;;;;;;;17.23;14.48;;;;;;;10.59;100.00;95997.16;1030292;28;20027;-68
2021/09/05 00:49:45;;;;;;;16.50;13.40;;;;;;;10.50;100.00;95977.72;1030669;28;20022;-68
2021/09/05 00:50:16;;;;;;;17.13;13.68;;;;;;;10.50;100.00;95982.19;1026598;28;20109;-68
2021/09/05 00:50:46;;;;;;;17.08;14.43;;;;;;;10.57;100.00;95994.00;1030250;28;20022;-68
2021/09/05 00:51:17;;;;;;;18.55;14.93;;;;;;;10.52;100.00;95988.72;1026176;28;20030;-67
2021/09/05 00:51:47;;;;;;;16.98;14.55;;;;;;;10.54;100.00;95983.25;1026877;28;20469;-68
2021/09/05 00:52:21;;;;;;;18.90;13.98;;;;;;;10.57;100.00;95991.38;1024452;28;20386;-67
2021/09/05 00:52:53;;;;;;;17.20;13.68;;;;;;;10.51;100.00;95976.66;1030730;28;20045;-68
2021/09/05 00:53:23;;;;;;;18.52;15.10;;;;;;;10.57;100.00;95990.59;1030565;28;20296;-68
2021/09/05 00:53:54;;;;;;;20.38;14.32;;;;;;;10.57;100.00;95991.38;1023986;28;20937;-68
2021/09/05 00:54:24;;;;;;;17.75;14.00;;;;;;;10.56;100.00;95989.81;1022660;29;20585;-65
2021/09/05 00:54:55;;;;;;;20.48;15.10;;;;;;;10.54;100.00;95980.63;1026807;28;20112;-69
2021/09/05 00:55:25;;;;;;;17.52;14.25;;;;;;;10.54;100.00;95994.53;1026643;28;20027;-68
2021/09/05 00:55:56;;;;;;;16.75;14.65;;;;;;;10.58;100.00;95995.56;1034417;28;20117;-68
2021/09/05 00:56:28;;;;;;;18.90;15.23;;;;;;;10.55;100.00;95996.09;1034591;28;20472;-68
2021/09/05 00:56:58;;;;;;;21.27;15.00;;;;;;;10.54;100.00;95999.78;1035216;28;20121;-67
2021/09/05 00:57:28;;;;;;;17.95;14.57;;;;;;;10.53;100.00;95992.94;1031556;28;20695;-68
2021/09/05 00:57:59;;;;;;;19.50;14.50;;;;;;;10.53;100.00;96000.81;1030635;28;20542;-68
2021/09/05 00:58:30;;;;;;;18.20;14.95;;;;;;;10.51;100.00;96000.28;1026830;28;20034;-67
2021/09/05 00:59:06;;;;;;;16.63;14.80;;;;;;;10.51;100.00;95996.88;1028721;28;20053;-68
2021/09/05 00:59:38;;;;;;;20.40;15.65;;;;;;;10.50;100.00;95990.84;1027582;28;20329;-68
2021/09/05 01:00:09;;;;;;;19.42;15.48;;;;;;;10.49;100.00;95991.06;1029856;28;20276;-68
2021/09/05 01:00:40;;;;;;;20.27;16.73;;;;;;;10.48;100.00;95998.16;1024202;28;20262;-68
2021/09/05 01:01:10;;;;;;;23.27;15.77;;;;;;;10.42;100.00;95986.06;1022673;28;21164;-65
2021/09/05 01:01:41;;;;;;;22.92;16.52;;;;;;;10.48;100.00;96003.41;1030526;28;20026;-65
2021/09/05 01:02:11;;;;;;;19.63;15.88;;;;;;;10.48;100.00;95998.16;1030791;28;20029;-68
2021/09/05 01:02:42;;;;;;;18.92;15.48;;;;;;;10.47;100.00;95996.59;1024680;28;20031;-68
2021/09/05 01:03:12;;;;;;;18.75;14.05;;;;;;;10.47;100.00;96004.47;1023087;28;20027;-68
2021/09/05 01:03:43;;;;;;;19.08;14.93;;;;;;;10.47;100.00;96001.06;1022824;29;20482;-67
2021/09/05 01:04:13;;;;;;;17.73;14.10;;;;;;;10.44;100.00;96006.81;1021451;28;20432;-67
2021/09/05 01:04:44;;;;;;;20.02;15.55;;;;;;;10.40;100.00;96001.28;1022659;28;20039;-67
2021/09/05 01:05:14;;;;;;;18.95;14.27;;;;;;;10.45;100.00;96011.78;1026842;28;20316;-67
2021/09/05 01:05:44;;;;;;;19.83;14.32;;;;;;;10.44;100.00;95999.72;1026284;28;20031;-67
2021/09/05 01:06:15;;;;;;;19.15;15.57;;;;;;;10.44;100.00;96007.59;1022924;28;20039;-68
2021/09/05 01:06:45;;;;;;;20.75;14.73;;;;;;;10.44;100.00;96012.84;1026508;28;20023;-68
2021/09/05 01:07:16;;;;;;;22.48;15.20;;;;;;;10.42;100.00;96004.41;1026453;28;20497;-68
2021/09/05 01:07:46;;;;;;;17.33;14.32;;;;;;;10.44;100.00;96010.22;1029440;28;20022;-67
2021/09/05 01:08:17;;;;;;;18.65;15.48;;;;;;;10.32;100.00;95988.63;1026580;28;20500;-67
2021/09/05 01:08:48;;;;;;;19.45;16.15;;;;;;;10.41;100.00;96008.09;1018448;29;20043;-68
2021/09/05 01:09:19;;;;;;;23.70;15.93;;;;;;;10.41;100.00;96008.09;1020564;28;20046;-68
2021/09/05 01:09:49;;;;;;;22.27;15.45;;;;;;;10.36;100.00;96002.81;1026702;28;20968;-68
2021/09/05 01:10:20;;;;;;;21.02;16.45;;;;;;;10.31;100.00;96002.78;1022906;28;20070;-68
2021/09/05 01:10:50;;;;;;;22.52;16.60;;;;;;;10.36;100.00;96002.81;1023265;28;20031;-68
2021/09/05 01:11:20;;;;;;;20.15;15.93;;;;;;;10.35;100.00;96011.72;1029764;28;20030;-67
2021/09/05 01:11:51;;;;;;;18.00;15.02;;;;;;;10.35;100.00;96009.09;1026684;28;20500;-68
2021/09/05 01:12:21;;;;;;;19.88;15.05;;;;;;;10.30;100.00;96006.47;1027213;28;20521;-65
2021/09/05 01:12:52;;;;;;;21.92;16.02;;;;;;;10.35;100.00;96006.47;1027993;28;20034;-68
2021/09/05 01:13:22;;;;;;;19.05;15.40;;;;;;;10.33;100.00;96013.84;1026315;28;20030;-68
2021/09/05 01:13:53;;;;;;;22.23;16.83;;;;;;;10.32;100.00;96009.59;1022344;29;20027;-67
2021/09/05 01:14:24;;;;;;;21.45;15.95;;;;;;;10.27;100.00;96001.72;1028055;28;20030;-67
2021/09/05 01:14:54;;;;;;;22.10;16.52;;;;;;;10.32;100.00;96012.22;1022665;29;20051;-69
2021/09/05 01:15:24;;;;;;;21.38;16.52;;;;;;;10.27;100.00;96004.34;1022270;29;20138;-68
2021/09/05 01:15:55;;;;;;;18.73;15.52;;;;;;;10.29;100.00;96004.88;1022758;28;20511;-68
2021/09/05 01:16:33;;;;;;;22.25;17.10;;;;;;;10.32;100.00;96012.22;1023714;28;20047;-67
2021/09/05 01:17:03;;;;;;;21.77;16.15;;;;;;;10.30;100.00;96007.25;1022597;28;20035;-67
2021/09/05 01:17:37;;;;;;;21.65;16.58;;;;;;;10.28;100.00;96005.91;1024832;28;20299;-66
2021/09/05 01:18:07;;;;;;;21.20;16.55;;;;;;;10.28;100.00;96005.91;1032137;28;20030;-68
2021/09/05 01:18:38;;;;;;;21.75;15.93;;;;;;;10.26;100.00;96010.63;1037777;28;20614;-66
2021/09/05 01:19:10;;;;;;;22.80;17.35;;;;;;;10.19;100.00;95999.53;1043052;28;20029;-67
2021/09/05 01:19:40;;;;;;;18.40;15.80;;;;;;;10.26;100.00;96008.00;1039312;28;20025;-67
2021/09/05 01:20:11;;;;;;;19.98;15.30;;;;;;;10.24;100.00;96012.69;1035284;28;20663;-67
2021/09/05 01:20:41;;;;;;;19.60;15.85;;;;;;;10.25;100.00;96009.81;1031419;28;20464;-67
2021/09/05 01:21:12;;;;;;;18.90;14.20;;;;;;;10.26;100.00;96010.63;1027046;28;20074;-66
2021/09/05 01:21:43;;;;;;;17.80;14.98;;;;;;;10.27;100.00;96017.47;1027167;28;20027;-68
2021/09/05 01:22:14;;;;;;;20.48;13.60;;;;;;;10.28;100.00;96009.31;1026729;28;20500;-68
2021/09/05 01:22:44;;;;;;;18.38;14.38;;;;;;;10.28;100.00;96009.31;1027463;28;20278;-67
2021/09/05 01:23:15;;;;;;;17.10;13.50;;;;;;;10.29;100.00;96010.91;1027410;28;20037;-68
2021/09/05 01:23:45;;;;;;;19.42;14.15;;;;;;;10.28;100.00;96013.78;1026863;28;20539;-67
2021/09/05 01:24:16;;;;;;;20.55;15.00;;;;;;;10.29;100.00;96012.75;1023525;28;20023;-68
2021/09/05 01:24:46;;;;;;;16.98;14.43;;;;;;;10.24;100.00;96007.44;1023531;28;20566;-67
2021/09/05 01:25:17;;;;;;;19.70;15.18;;;;;;;10.29;100.00;96015.34;1022970;28;20034;-67
2021/09/05 01:25:47;;;;;;;17.10;14.90;;;;;;;10.23;100.00;96008.47;1027413;28;20069;-67
2021/09/05 01:26:18;;;;;;;18.13;15.48;;;;;;;10.22;100.00;96001.66;1027401;28;20035;-65
2021/09/05 01:26:50;;;;;;;19.52;15.68;;;;;;;10.19;100.00;96000.31;1022433;28;20127;-66
2021/09/05 01:27:20;;;;;;;19.85;15.02;;;;;;;10.26;100.00;96013.25;1022839;28;20066;-65
2021/09/05 01:27:51;;;;;;;21.63;16.48;;;;;;;10.25;100.00;96006.41;1027212;28;21062;-68
2021/09/05 01:28:21;;;;;;;18.33;14.82;;;;;;;10.27;100.00;96012.22;1030315;28;20496;-68
2021/09/05 01:28:53;;;;;;;20.98;15.55;;;;;;;10.27;100.00;96015.63;1027357;28;20026;-68
2021/09/05 01:29:23;;;;;;;18.45;14.75;;;;;;;10.26;100.00;96010.63;1027544;28;20042;-67
2021/09/05 01:29:54;;;;;;;18.65;15.95;;;;;;;10.24;100.00;96013.47;1031379;28;20295;-68
2021/09/05 01:30:24;;;;;;;24.67;17.77;;;;;;;10.23;100.00;96016.34;1036324;28;20034;-67
2021/09/05 01:30:55;;;;;;;21.63;16.95;;;;;;;10.20;100.00;96012.41;1034896;28;20112;-68
2021/09/05 01:31:35;;;;;;;19.52;15.70;;;;;;;10.20;100.00;96017.66;1030540;28;20535;-67
2021/09/05 01:32:06;;;;;;;21.48;15.18;;;;;;;10.20;100.00;96009.78;1029105;28;20018;-67
2021/09/05 01:32:37;;;;;;;18.70;15.68;;;;;;;10.18;100.00;96009.25;1032803;28;20269;-66
2021/09/05 01:33:07;;;;;;;23.52;16.73;;;;;;;10.17;100.00;96017.38;1036863;28;20033;-67
2021/09/05 01:33:38;;;;;;;19.65;15.65;;;;;;;10.16;100.00;96016.59;1035116;28;20076;-67
2021/09/05 01:34:08;;;;;;;19.13;15.00;;;;;;;10.09;100.00;96008.94;1039329;28;20028;-68
2021/09/05 01:34:39;;;;;;;25.88;17.17;;;;;;;10.12;100.00;96011.03;1031025;28;20018;-67
2021/09/05 01:35:09;;;;;;;19.92;15.77;;;;;;;10.05;100.00;96002.59;1033706;28;20084;-67
2021/09/05 01:35:40;;;;;;;20.98;17.42;;;;;;;10.12;100.00;96016.28;1035158;28;20014;-68
2021/09/05 01:36:10;;;;;;;19.60;16.30;;;;;;;10.12;100.00;96016.28;1031256;28;20137;-68
2021/09/05 01:36:41;;;;;;;20.90;16.33;;;;;;;10.12;100.00;96012.88;1035437;28;20041;-68
2021/09/05 01:37:11;;;;;;;23.02;17.23;;;;;;;10.09;100.00;96016.81;1027111;28;20074;-67
2021/09/05 01:37:41;;;;;;;21.13;17.08;;;;;;;10.10;100.00;96017.59;1027395;28;20045;-68
2021/09/05 01:38:12;;;;;;;20.45;16.50;;;;;;;10.07;100.00;96018.09;1031283;28;20018;-68
2021/09/05 01:38:42;;;;;;;22.30;17.85;;;;;;;10.02;100.00;96015.41;1031112;28;20058;-67
2021/09/05 01:39:13;;;;;;;24.00;17.25;;;;;;;10.05;100.00;96023.56;1027273;28;20023;-67
2021/09/05 01:39:44;;;;;;;23.73;17.02;;;;;;;10.04;100.00;96022.00;1023304;28;20413;-68
2021/09/05 01:40:14;;;;;;;22.83;16.88;;;;;;;10.03;100.00;96023.03;1023068;28;20255;-64
2021/09/05 01:40:45;;;;;;;23.70;17.52;;;;;;;10.01;100.00;96017.25;1023728;28;20027;-67
2021/09/05 01:41:15;;;;;;;22.58;14.90;;;;;;;9.98;100.00;96011.72;1030911;28;20019;-64
2021/09/05 01:41:46;;;;;;;19.58;16.67;;;;;;;10.01;100.00;96019.09;1030910;28;20516;-68
2021/09/05 01:42:16;;;;;;;19.02;15.90;;;;;;;10.01;100.00;96017.25;1027182;28;21008;-68
2021/09/05 01:42:46;;;;;;;20.67;16.48;;;;;;;10.01;100.00;96022.50;1026945;28;20019;-68
2021/09/05 01:43:17;;;;;;;22.20;17.65;;;;;;;10.01;100.00;96022.50;1022610;28;20378;-65
2021/09/05 01:43:47;;;;;;;24.05;17.42;;;;;;;9.99;100.00;96024.56;1024683;28;20034;-68
2021/09/05 01:44:19;;;;;;;20.98;16.67;;;;;;;9.91;100.00;96014.56;1033270;28;20276;-66
2021/09/05 01:44:50;;;;;;;21.83;16.25;;;;;;;9.93;100.00;96011.72;1031085;28;20723;-68
2021/09/05 01:45:20;;;;;;;20.00;15.70;;;;;;;9.91;100.00;96012.72;1026686;28;20262;-68
2021/09/05 01:45:51;;;;;;;20.95;15.82;;;;;;;9.89;100.00;96008.75;1027309;28;20495;-67
2021/09/05 01:46:21;;;;;;;21.15;16.50;;;;;;;9.92;100.00;96013.50;1031046;28;20038;-67
2021/09/05 01:46:52;;;;;;;20.63;16.63;;;;;;;9.94;100.00;96024.53;1026864;28;20031;-68
2021/09/05 01:47:22;;;;;;;21.73;16.10;;;;;;;9.93;100.00;96022.19;1026731;28;20031;-67
2021/09/05 01:47:52;;;;;;;16.40;14.18;;;;;;;9.95;100.00;96026.13;1026852;28;20030;-67
2021/09/05 01:48:23;;;;;;;18.60;14.95;;;;;;;9.93;100.00;96022.19;1026989;28;20061;-67
2021/09/05 01:48:53;;;;;;;19.08;15.55;;;;;;;9.92;100.00;96031.84;1025763;28;20026;-67
2021/09/05 01:49:24;;;;;;;21.13;14.98;;;;;;;9.84;100.00;96014.78;1029905;28;20066;-68
2021/09/05 01:49:54;;;;;;;19.20;16.05;;;;;;;9.90;100.00;96028.72;1028924;28;20037;-67
2021/09/05 01:50:25;;;;;;;19.42;15.38;;;;;;;9.83;100.00;96012.41;1030128;28;20034;-68
2021/09/05 01:50:56;;;;;;;20.23;15.35;;;;;;;9.88;100.00;96023.72;1022941;28;20035;-67
2021/09/05 01:51:26;;;;;;;20.20;15.90;;;;;;;9.88;100.00;96028.94;1021866;28;20596;-66
2021/09/05 01:51:56;;;;;;;17.65;14.50;;;;;;;9.83;100.00;96018.44;1034309;28;20342;-63
2021/09/05 01:52:27;;;;;;;18.35;14.95;;;;;;;9.79;100.00;96011.31;1031099;28;20476;-67
2021/09/05 01:52:57;;;;;;;23.83;16.25;;;;;;;9.86;100.00;96028.44;1028784;28;20089;-66
2021/09/05 01:53:28;;;;;;;19.08;16.27;;;;;;;9.85;100.00;96026.03;1032748;28;20511;-67
2021/09/05 01:53:58;;;;;;;20.23;16.67;;;;;;;9.82;100.00;96021.28;1027147;28;20034;-67
2021/09/05 01:54:29;;;;;;;20.25;17.75;;;;;;;9.86;100.00;96028.44;1023284;28;20063;-68
2021/09/05 01:54:59;;;;;;;19.42;16.42;;;;;;;9.85;100.00;96026.81;1027918;28;20023;-67
2021/09/05 01:55:30;;;;;;;25.60;18.25;;;;;;;9.80;100.00;96018.16;1030871;28;20037;-68
2021/09/05 01:56:00;;;;;;;22.88;16.40;;;;;;;9.80;100.00;96023.41;1027733;28;20034;-68
2021/09/05 01:56:31;;;;;;;21.52;16.75;;;;;;;9.71;100.00;96006.53;1031069;28;20026;-67
2021/09/05 01:57:01;;;;;;;19.92;16.02;;;;;;;9.79;100.00;96019.19;1029749;28;20023;-67
2021/09/05 01:57:32;;;;;;;26.80;17.67;;;;;;;9.83;100.00;96026.31;1025128;28;20031;-68
2021/09/05 01:58:02;;;;;;;27.33;17.42;;;;;;;9.82;100.00;96026.53;1027085;28;20054;-68
2021/09/05 01:58:33;;;;;;;21.13;16.50;;;;;;;9.81;100.00;96028.38;1031351;28;20053;-67
2021/09/05 01:59:05;;;;;;;19.58;15.45;;;;;;;9.76;100.00;96022.28;1028725;28;20026;-67
2021/09/05 01:59:35;;;;;;;25.38;16.58;;;;;;;9.84;100.00;96024.47;1027283;28;20055;-68
2021/09/05 02:00:06;;;;;;;20.05;16.42;;;;;;;9.82;100.00;96026.53;1032477;28;20344;-67
2021/09/05 02:00:37;;;;;;;18.92;15.38;;;;;;;9.83;100.00;96031.53;1027616;28;20093;-65
2021/09/05 02:01:09;;;;;;;28.23;17.30;;;;;;;9.85;100.00;96026.81;1026371;28;20273;-67
2021/09/05 02:01:39;;;;;;;23.25;16.58;;;;;;;9.83;100.00;96023.69;1029841;28;20033;-66
2021/09/05 02:02:09;;;;;;;20.73;17.10;;;;;;;9.76;100.00;96024.91;1026831;28;20285;-67
2021/09/05 02:02:40;;;;;;;22.70;15.90;;;;;;;9.77;100.00;96018.66;1022978;29;20058;-68
2021/09/05 02:03:10;;;;;;;21.52;16.55;;;;;;;9.84;100.00;96030.50;1022739;28;20029;-68
2021/09/05 02:03:41;;;;;;;23.50;18.83;;;;;;;9.82;100.00;96031.78;1022914;29;20063;-68
2021/09/05 02:04:11;;;;;;;23.95;19.08;;;;;;;9.74;100.00;96013.91;1023407;28;20091;-67
2021/09/05 02:04:42;;;;;;;21.23;18.83;;;;;;;9.80;100.00;96029.44;1030758;28;20492;-67
2021/09/05 02:05:12;;;;;;;23.45;17.23;;;;;;;9.80;100.00;96033.88;1030744;28;20025;-67
2021/09/05 02:05:43;;;;;;;22.90;18.33;;;;;;;9.79;100.00;96038.34;1031221;28;20029;-68
2021/09/05 02:06:13;;;;;;;26.30;18.67;;;;;;;9.79;100.00;96032.28;1031014;28;20068;-68
2021/09/05 02:06:43;;;;;;;22.10;18.83;;;;;;;9.80;100.00;96029.44;1030709;28;20106;-67
2021/09/05 02:07:14;;;;;;;23.52;19.33;;;;;;;9.81;100.00;96032.84;1031154;28;20037;-67
2021/09/05 02:07:44;;;;;;;26.20;20.95;;;;;;;9.84;100.00;96029.72;1030939;28;20122;-68
2021/09/05 02:08:15;;;;;;;26.35;20.52;;;;;;;9.87;100.00;96032.63;1030817;28;20031;-67
2021/09/05 02:08:45;;;;;;;27.85;21.13;;;;;;;9.89;100.00;96037.59;1031034;28;20030;-67
2021/09/05 02:09:16;;;;;;;29.27;21.45;;;;;;;9.94;100.00;96040.28;1032300;28;20056;-67
2021/09/05 02:09:46;;;;;;;25.95;20.15;;;;;;;9.87;100.00;96026.59;1035043;28;20388;-67
2021/09/05 02:10:16;;;;;;;26.38;21.20;;;;;;;9.92;100.00;96031.84;1030931;28;20029;-65
2021/09/05 02:10:47;;;;;;;28.13;20.95;;;;;;;9.91;100.00;96025.03;1031235;28;20022;-68
2021/09/05 02:11:17;;;;;;;27.90;22.05;;;;;;;9.94;100.00;96031.63;1030003;28;20018;-65
2021/09/05 02:11:48;;;;;;;30.30;23.75;;;;;;;10.04;100.00;96036.94;1026930;28;20023;-67
2021/09/05 02:12:18;;;;;;;32.95;24.38;;;;;;;10.08;100.00;96041.41;1031153;28;20026;-67
2021/09/05 02:12:49;;;;;;;29.70;22.70;;;;;;;10.17;100.00;96043.59;1022519;29;20069;-68
2021/09/05 02:13:19;;;;;;;25.38;20.90;;;;;;;10.18;100.00;96040.72;1022710;29;20671;-67
2021/09/05 02:13:50;;;;;;;29.95;23.55;;;;;;;10.20;100.00;96045.72;1026746;28;20026;-68
2021/09/05 02:14:20;;;;;;;25.25;21.30;;;;;;;10.21;100.00;96034.97;1023784;28;20042;-67
2021/09/05 02:14:51;;;;;;;27.42;20.77;;;;;;;10.17;100.00;96033.88;1018930;29;20519;-67
2021/09/05 02:15:21;;;;;;;29.40;21.98;;;;;;;10.22;100.00;96041.00;1023009;29;20078;-67
2021/09/05 02:15:52;;;;;;;24.98;20.63;;;;;;;10.20;100.00;96038.63;1030792;28;20062;-67
2021/09/05 02:16:22;;;;;;;25.67;19.80;;;;;;;10.28;100.00;96037.38;1022295;28;20023;-68
2021/09/05 02:16:53;;;;;;;25.08;20.67;;;;;;;10.27;100.00;96035.81;1026908;28;20161;-67
2021/09/05 02:17:23;;;;;;;27.95;20.70;;;;;;;10.26;100.00;96042.91;1022872;29;20030;-67
2021/09/05 02:17:54;;;;;;;25.67;20.23;;;;;;;10.29;100.00;96041.59;1022391;28;20063;-67
2021/09/05 02:18:25;;;;;;;27.98;21.38;;;;;;;10.27;100.00;96043.69;1026925;28;20097;-67
2021/09/05 02:18:55;;;;;;;22.73;19.75;;;;;;;10.32;100.00;96044.50;1030958;28;20026;-67
2021/09/05 02:19:27;;;;;;;23.67;19.33;;;;;;;10.35;100.00;96036.13;1030205;28;20030;-68
2021/09/05 02:19:57;;;;;;;26.02;20.35;;;;;;;10.36;100.00;96039.53;1030812;28;20157;-65
2021/09/05 02:20:28;;;;;;;27.90;19.92;;;;;;;10.42;100.00;96040.34;1031427;28;20270;-68
2021/09/05 02:20:58;;;;;;;25.02;19.42;;;;;;;10.39;100.00;96033.78;1035011;28;20018;-66
2021/09/05 02:21:29;;;;;;;25.25;18.92;;;;;;;10.42;100.00;96033.28;1025549;28;20515;-67
2021/09/05 02:22:00;;;;;;;27.55;19.98;;;;;;;10.47;100.00;96046.44;1026947;28;20042;-67
2021/09/05 02:22:30;;;;;;;26.38;19.40;;;;;;;10.48;100.00;96040.13;1027063;28;20019;-67
2021/09/05 02:23:01;;;;;;;22.67;17.75;;;;;;;10.51;100.00;96042.25;1024614;28;20298;-67
2021/09/05 02:23:32;;;;;;;22.95;19.75;;;;;;;10.53;100.00;96044.59;1026226;28;20034;-67
2021/09/05 02:24:02;;;;;;;24.98;19.40;;;;;;;10.52;100.00;96041.19;1034689;28;20026;-66